KLAX/LAX METAR and TAF weather

Enter ICAO airport designator
Station Type Date Time Source
KLAX METAR 2019/10/20 18:53 UTC NOAA

KLAX 201853Z 19003KT 10SM FEW220 FEW280 27/10 A2991 RMK AO2 SLP129 T02670100 $


Station Type Date Time Source
KLAX Decoded METAR 2019/10/20 18:53 UTC NOAA

LOS ANGELES INTERNTL AIRPORT, CA, United States (KLAX) 33-56N 118-23W 46M
Oct 20, 2019 - 02:53 PM EDT / 2019.10.20 1853 UTC
Wind: from the S (190 degrees) at 3 MPH (3 KT):0
Visibility: 10 mile(s):0
Sky conditions: mostly clear
Temperature: 80.1 F (26.7 C)
Dew Point: 50.0 F (10.0 C)
Relative Humidity: 35%
Pressure (altimeter): 29.91 in. Hg (1012 hPa)
ob: KLAX 201853Z 19003KT 10SM FEW220 FEW280 27/10 A2991 RMK AO2 SLP129 T02670100
cycle: 19

Station Type Date Time Source
KLAX TAF 2019/10/20 18:39 UTC NOAA

TAF KLAX 201736Z 2018/2124 14003KT P6SM FEW080 FEW200
FM201900 26010KT P6SM SKC
FM210400 VRB03KT P6SM SKC
FM210900 04006KT P6SM SKC
FM211600 VRB03KT P6SM SKC
FM212000 26008KT P6SM SKC

Example: see airport list